Time;durP1;ratioP1;P1;durP2;ratioP2;P2;SDS_P1;SDS_P2;PMS_P1;PMS_P2;Temp;Humidity;BMP_temperature;BMP_pressure;BME280_temperature;BME280_humidity;BME280_pressure;Samples;Min_cycle;Max_cycle;Signal;HPM_P1;HPM_P2
2022/09/21 00:01:08;;;;;;;;;;;;;;;-145.50;100.00;65435.88;5058434;28;20343;-61
2022/09/21 00:03:35;;;;;;;;;;;;;;;-145.50;100.00;65435.88;5064376;28;19924;-63
2022/09/21 00:06:05;;;;;;;;;;;;;;;-145.50;100.00;65435.88;5060852;28;19929;-62
2022/09/21 00:08:32;;;;;;;;;;;;;;;-145.50;100.00;65435.88;5059390;28;20373;-60
2022/09/21 00:10:59;;;;;;;;;;;;;;;-145.50;100.00;65435.88;5068668;28;20472;-62
2022/09/21 00:13:27;;;;;;;;;;;;;;;-145.50;100.00;65435.88;5057529;28;19924;-61
2022/09/21 00:15:56;;;;;;;;;;;;;;;-145.50;100.00;65435.88;5060704;28;19934;-62
2022/09/21 00:18:23;;;;;;;;;;;;;;;-145.50;100.00;65435.88;5050476;28;20557;-63
2022/09/21 00:20:51;;;;;;;;;;;;;;;-145.50;100.00;65435.88;5057099;28;19924;-60
2022/09/21 00:23:18;;;;;;;;;;;;;;;-145.50;100.00;65435.88;5062817;28;19931;-61
2022/09/21 00:25:44;;;;;;;;;;;;;;;-145.50;100.00;65435.88;5058979;28;20409;-60
2022/09/21 00:28:11;;;;;;;;;;;;;;;-145.50;100.00;65435.88;5067293;28;19924;-62
2022/09/21 00:30:38;;;;;;;;;;;;;;;-145.50;100.00;65435.88;5054116;28;19985;-61
2022/09/21 00:33:05;;;;;;;;;;;;;;;-145.50;100.00;65435.88;5055291;28;19924;-60
2022/09/21 00:35:32;;;;;;;;;;;;;;;-145.50;100.00;65435.88;5055332;28;19932;-60
2022/09/21 00:38:01;;;;;;;;;;;;;;;-145.50;100.00;65435.88;5061395;28;20274;-60
2022/09/21 00:40:28;;;;;;;;;;;;;;;-145.50;100.00;65435.88;5064019;28;19924;-61
2022/09/21 00:43:24;;;;;;;;;;;;;;;-145.50;100.00;65435.88;5058665;28;19935;-61
2022/09/21 00:45:56;;;;;;;;;;;;;;;-145.50;100.00;65435.88;5042620;28;19924;-62
2022/09/21 00:48:22;;;;;;;;;;;;;;;-145.50;100.00;65435.88;5053919;28;20065;-61
2022/09/21 00:50:52;;;;;;;;;;;;;;;-145.50;100.00;65435.88;5047774;28;19928;-61
2022/09/21 00:53:19;;;;;;;;;;;;;;;-145.50;100.00;65435.88;5049526;28;19931;-62
2022/09/21 00:55:48;;;;;;;;;;;;;;;-145.50;100.00;65435.88;5062356;28;19929;-62
2022/09/21 00:58:19;;;;;;;;;;;;;;;-145.50;100.00;65435.88;5054183;28;19931;-60
2022/09/21 01:00:45;;;;;;;;;;;;;;;-145.50;100.00;65435.88;5058676;28;19924;-60
2022/09/21 01:03:12;;;;;;;;;;;;;;;-145.50;100.00;65435.88;5059327;28;19974;-61
2022/09/21 01:05:38;;;;;;;;;;;;;;;-145.50;100.00;65435.88;5056007;28;19920;-61
2022/09/21 01:08:06;;;;;;;;;;;;;;;-145.50;100.00;65435.88;5060123;28;19924;-61
2022/09/21 01:10:58;;;;;;;;;;;;;;;-145.50;100.00;65435.88;5062064;28;20295;-61
2022/09/21 01:13:25;;;;;;;;;;;;;;;-145.50;100.00;65435.88;5053991;28;19925;-61
2022/09/21 01:16:00;;;;;;;;;;;;;;;-145.50;100.00;65435.88;5050752;28;19924;-61
2022/09/21 01:18:36;;;;;;;;;;;;;;;-145.50;100.00;65435.88;5061142;28;19978;-62
2022/09/21 01:21:09;;;;;;;;;;;;;;;-145.50;100.00;65435.88;5055310;28;19931;-61
2022/09/21 01:23:39;;;;;;;;;;;;;;;-145.50;100.00;65435.88;5062347;28;19928;-61
2022/09/21 01:26:05;;;;;;;;;;;;;;;-145.50;100.00;65435.88;5054487;28;19931;-60
2022/09/21 01:28:32;;;;;;;;;;;;;;;-145.50;100.00;65435.88;5057214;28;19924;-61
2022/09/21 01:31:04;;;;;;;;;;;;;;;-145.50;100.00;65435.88;5055087;28;20133;-61
2022/09/21 01:33:34;;;;;;;;;;;;;;;-145.50;100.00;65435.88;5057614;28;19938;-61
2022/09/21 01:36:04;;;;;;;;;;;;;;;-145.50;100.00;65435.88;5073071;28;19931;-61
2022/09/21 01:38:33;;;;;;;;;;;;;;;-145.50;100.00;65435.88;5072432;28;19931;-61
2022/09/21 01:41:02;;;;;;;;;;;;;;;-145.50;100.00;65435.88;5067831;28;19931;-62
2022/09/21 01:43:52;;;;;;;;;;;;;;;-145.50;100.00;65435.88;5053713;28;20400;-62
2022/09/21 01:46:19;;;;;;;;;;;;;;;-145.50;100.00;65435.88;5062288;28;19942;-62
2022/09/21 01:48:49;;;;;;;;;;;;;;;-145.50;100.00;65435.88;5061325;28;20566;-60
2022/09/21 01:51:17;;;;;;;;;;;;;;;-145.50;100.00;65435.88;5060616;28;19931;-61
2022/09/21 01:53:47;;;;;;;;;;;;;;;-145.50;100.00;65435.88;5061338;28;20402;-62
2022/09/21 01:56:39;;;;;;;;;;;;;;;-145.50;100.00;65435.88;5051279;28;19931;-61
2022/09/21 01:59:06;;;;;;;;;;;;;;;-145.50;100.00;65435.88;5066688;28;19924;-62
2022/09/21 02:01:35;;;;;;;;;;;;;;;-145.50;100.00;65435.88;5056828;28;19924;-61
2022/09/21 02:04:06;;;;;;;;;;;;;;;-145.50;100.00;65435.88;5063478;28;19975;-62
2022/09/21 02:06:33;;;;;;;;;;;;;;;-145.50;100.00;65435.88;5062166;28;20453;-61
2022/09/21 02:09:00;;;;;;;;;;;;;;;-145.50;100.00;65435.88;5064317;28;19927;-63
2022/09/21 02:11:26;;;;;;;;;;;;;;;-145.50;100.00;65435.88;5060841;28;20373;-60
2022/09/21 02:13:53;;;;;;;;;;;;;;;-145.50;100.00;65435.88;5058410;28;19925;-63
2022/09/21 02:16:26;;;;;;;;;;;;;;;-145.50;100.00;65435.88;5054512;28;19925;-56
2022/09/21 02:19:10;;;;;;;;;;;;;;;-145.50;100.00;65435.88;5054358;28;19924;-60
2022/09/21 02:21:45;;;;;;;;;;;;;;;-145.50;100.00;65435.88;5054309;28;19977;-61
2022/09/21 02:24:21;;;;;;;;;;;;;;;-145.50;100.00;65435.88;5048988;28;19924;-62
2022/09/21 02:26:52;;;;;;;;;;;;;;;-145.50;100.00;65435.88;5066005;28;19929;-62
2022/09/21 02:29:24;;;;;;;;;;;;;;;-145.50;100.00;65435.88;5060881;28;19993;-61
2022/09/21 02:31:54;;;;;;;;;;;;;;;-145.50;100.00;65435.88;5070650;28;19929;-61
2022/09/21 02:34:24;;;;;;;;;;;;;;;-145.50;100.00;65435.88;5071201;28;19924;-61
2022/09/21 02:36:57;;;;;;;;;;;;;;;-145.50;100.00;65435.88;5061376;28;19951;-61
2022/09/21 02:39:30;;;;;;;;;;;;;;;-145.50;100.00;65435.88;5071129;28;20179;-61
2022/09/21 02:41:56;;;;;;;;;;;;;;;-145.50;100.00;65435.88;5056781;28;19928;-60
2022/09/21 02:44:32;;;;;;;;;;;;;;;-145.50;100.00;65435.88;5065224;28;19924;-60
2022/09/21 02:46:59;;;;;;;;;;;;;;;-145.50;100.00;65435.88;5055672;28;19929;-60
2022/09/21 02:49:37;;;;;;;;;;;;;;;-145.50;100.00;65435.88;5062729;28;19928;-61
2022/09/21 02:52:06;;;;;;;;;;;;;;;-145.50;100.00;65435.88;5056513;28;19928;-61
2022/09/21 02:54:33;;;;;;;;;;;;;;;-145.50;100.00;65435.88;5066456;28;20392;-60
2022/09/21 02:57:01;;;;;;;;;;;;;;;-145.50;100.00;65435.88;5057233;28;19989;-61
2022/09/21 02:59:27;;;;;;;;;;;;;;;-145.50;100.00;65435.88;5057769;28;19952;-61
2022/09/21 03:01:57;;;;;;;;;;;;;;;-145.50;100.00;65435.88;5066908;28;19985;-60
2022/09/21 03:04:24;;;;;;;;;;;;;;;-145.50;100.00;65435.88;5055259;28;19954;-62
2022/09/21 03:06:50;;;;;;;;;;;;;;;-145.50;100.00;65435.88;5061496;28;19997;-62
2022/09/21 03:09:17;;;;;;;;;;;;;;;-145.50;100.00;65435.88;5060984;28;19932;-61
2022/09/21 03:11:43;;;;;;;;;;;;;;;-145.50;100.00;65435.88;5064622;28;19969;-61
2022/09/21 03:14:10;;;;;;;;;;;;;;;-145.50;100.00;65435.88;5067412;28;19955;-62
2022/09/21 03:16:37;;;;;;;;;;;;;;;-145.50;100.00;65435.88;5060697;28;19925;-62
2022/09/21 03:19:03;;;;;;;;;;;;;;;-145.50;100.00;65435.88;5059262;28;19924;-62
2022/09/21 03:21:30;;;;;;;;;;;;;;;-145.50;100.00;65435.88;5060086;28;19928;-60
2022/09/21 03:23:56;;;;;;;;;;;;;;;-145.50;100.00;65435.88;5066508;28;19983;-56
2022/09/21 03:26:23;;;;;;;;;;;;;;;-145.50;100.00;65435.88;5060919;28;19978;-62
2022/09/21 03:28:49;;;;;;;;;;;;;;;-145.50;100.00;65435.88;5066988;28;20521;-62
2022/09/21 03:31:16;;;;;;;;;;;;;;;-145.50;100.00;65435.88;5060016;28;19978;-61
2022/09/21 03:33:42;;;;;;;;;;;;;;;-145.50;100.00;65435.88;5054331;28;20667;-61
2022/09/21 03:36:09;;;;;;;;;;;;;;;-145.50;100.00;65435.88;5069079;28;19924;-61
2022/09/21 03:38:36;;;;;;;;;;;;;;;-145.50;100.00;65435.88;5067470;28;20552;-61
2022/09/21 03:41:02;;;;;;;;;;;;;;;-145.50;100.00;65435.88;5065523;28;19924;-61
2022/09/21 03:43:29;;;;;;;;;;;;;;;-145.50;100.00;65435.88;5059516;28;19920;-61
2022/09/21 03:45:55;;;;;;;;;;;;;;;-145.50;100.00;65435.88;5056701;28;19996;-61
2022/09/21 03:48:22;;;;;;;;;;;;;;;-145.50;100.00;65435.88;5062335;28;20423;-61
2022/09/21 03:50:48;;;;;;;;;;;;;;;-145.50;100.00;65435.88;5065645;28;19973;-62
2022/09/21 03:53:15;;;;;;;;;;;;;;;-145.50;100.00;65435.88;5074921;28;19965;-62
2022/09/21 03:55:41;;;;;;;;;;;;;;;-145.50;100.00;65435.88;5063827;28;19949;-62
2022/09/21 03:58:08;;;;;;;;;;;;;;;-145.50;100.00;65435.88;5062979;28;20307;-61
2022/09/21 04:00:35;;;;;;;;;;;;;;;-145.50;100.00;65435.88;5045928;28;20369;-62
2022/09/21 04:03:01;;;;;;;;;;;;;;;-145.50;100.00;65435.88;5069112;28;19977;-63
2022/09/21 04:05:27;;;;;;;;;;;;;;;-145.50;100.00;65435.88;5067868;28;19971;-61
2022/09/21 04:07:54;;;;;;;;;;;;;;;-145.50;100.00;65435.88;5071765;28;19963;-61
2022/09/21 04:10:25;;;;;;;;;;;;;;;-145.50;100.00;65435.88;5063624;28;20010;-57
2022/09/21 04:12:55;;;;;;;;;;;;;;;-145.50;100.00;65435.88;5047277;28;20421;-61
2022/09/21 04:15:22;;;;;;;;;;;;;;;-145.50;100.00;65435.88;5058846;28;20359;-61
2022/09/21 04:17:52;;;;;;;;;;;;;;;-145.50;100.00;65435.88;5051330;28;20457;-61
2022/09/21 04:20:19;;;;;;;;;;;;;;;-145.50;100.00;65435.88;5067531;28;19950;-62
2022/09/21 04:22:45;;;;;;;;;;;;;;;-145.50;100.00;65435.88;5059063;28;20220;-62
2022/09/21 04:25:12;;;;;;;;;;;;;;;-145.50;100.00;65435.88;5063005;28;20404;-60
2022/09/21 04:27:39;;;;;;;;;;;;;;;-145.50;100.00;65435.88;5064359;28;19924;-61
2022/09/21 04:30:07;;;;;;;;;;;;;;;-145.50;100.00;65435.88;5048717;28;19983;-60
2022/09/21 04:32:33;;;;;;;;;;;;;;;-145.50;100.00;65435.88;5059124;28;19977;-61
2022/09/21 04:34:59;;;;;;;;;;;;;;;-145.50;100.00;65435.88;5059763;28;19920;-62
2022/09/21 04:37:26;;;;;;;;;;;;;;;-145.50;100.00;65435.88;5061659;28;19924;-61
2022/09/21 04:39:52;;;;;;;;;;;;;;;-145.50;100.00;65435.88;5060698;28;20312;-59
2022/09/21 04:42:18;;;;;;;;;;;;;;;-145.50;100.00;65435.88;5044153;28;19928;-60
2022/09/21 04:44:45;;;;;;;;;;;;;;;-145.50;100.00;65435.88;5058888;28;19932;-61
2022/09/21 04:47:11;;;;;;;;;;;;;;;-145.50;100.00;65435.88;5056055;28;19974;-61
2022/09/21 04:49:37;;;;;;;;;;;;;;;-145.50;100.00;65435.88;5066355;28;20311;-61
2022/09/21 04:52:04;;;;;;;;;;;;;;;-145.50;100.00;65435.88;5060356;28;19928;-64
2022/09/21 04:54:31;;;;;;;;;;;;;;;-145.50;100.00;65435.88;5064303;28;20190;-60
2022/09/21 04:56:57;;;;;;;;;;;;;;;-145.50;100.00;65435.88;5055188;28;19928;-61
2022/09/21 04:59:23;;;;;;;;;;;;;;;-145.50;100.00;65435.88;5052008;28;19924;-61
2022/09/21 05:01:49;;;;;;;;;;;;;;;-145.50;100.00;65435.88;5072343;28;19977;-59
2022/09/21 05:04:16;;;;;;;;;;;;;;;-145.50;100.00;65435.88;5064680;28;19924;-61
2022/09/21 05:06:42;;;;;;;;;;;;;;;-145.50;100.00;65435.88;5074549;28;19970;-61
2022/09/21 05:11:53;;;;;;;;;;;;;;;-145.50;100.00;65435.88;5052678;28;19935;-61
2022/09/21 05:14:19;;;;;;;;;;;;;;;-145.50;100.00;65435.88;5060697;28;19955;-61
2022/09/21 05:16:48;;;;;;;;;;;;;;;-145.50;100.00;65435.88;5059829;28;20675;-61
2022/09/21 05:19:15;;;;;;;;;;;;;;;-145.50;100.00;65435.88;5070686;28;19924;-59
2022/09/21 05:21:41;;;;;;;;;;;;;;;-145.50;100.00;65435.88;5054408;28;20376;-62
2022/09/21 05:24:08;;;;;;;;;;;;;;;-145.50;100.00;65435.88;5066817;28;20413;-61
2022/09/21 05:26:34;;;;;;;;;;;;;;;-145.50;100.00;65435.88;5066234;28;20004;-61
2022/09/21 05:29:00;;;;;;;;;;;;;;;-145.50;100.00;65435.88;5062260;28;19924;-61
2022/09/21 05:31:26;;;;;;;;;;;;;;;-145.50;100.00;65435.88;5062274;28;19928;-62
2022/09/21 05:33:56;;;;;;;;;;;;;;;-145.50;100.00;65435.88;5053718;28;19928;-62
2022/09/21 05:36:41;;;;;;;;;;;;;;;-145.50;100.00;65435.88;5066963;28;20167;-62
2022/09/21 05:39:07;;;;;;;;;;;;;;;-145.50;100.00;65435.88;5050493;28;19968;-61
2022/09/21 05:41:34;;;;;;;;;;;;;;;-145.50;100.00;65435.88;5060741;28;19998;-62
2022/09/21 05:44:00;;;;;;;;;;;;;;;-145.50;100.00;65435.88;5062525;28;20348;-61
2022/09/21 05:46:39;;;;;;;;;;;;;;;-145.50;100.00;65435.88;5077253;28;19967;-61
2022/09/21 05:49:13;;;;;;;;;;;;;;;-145.50;100.00;65435.88;5071806;28;19946;-62
2022/09/21 05:51:52;;;;;;;;;;;;;;;-145.50;100.00;65435.88;5047365;28;19974;-59
2022/09/21 05:54:24;;;;;;;;;;;;;;;-145.50;100.00;65435.88;5066320;28;20007;-62
2022/09/21 05:57:12;;;;;;;;;;;;;;;-145.50;100.00;65435.88;5052987;28;19923;-61
2022/09/21 05:59:53;;;;;;;;;;;;;;;-145.50;100.00;65435.88;5060121;28;19924;-61
2022/09/21 06:02:38;;;;;;;;;;;;;;;-145.50;100.00;65435.88;5050907;28;20351;-61
2022/09/21 06:05:09;;;;;;;;;;;;;;;-145.50;100.00;65435.88;5071139;28;20415;-61
2022/09/21 06:07:35;;;;;;;;;;;;;;;-145.50;100.00;65435.88;5068631;28;19932;-61
2022/09/21 06:10:01;;;;;;;;;;;;;;;-145.50;100.00;65435.88;5078163;28;19931;-60
2022/09/21 06:12:27;;;;;;;;;;;;;;;-145.50;100.00;65435.88;5064814;28;19964;-60
2022/09/21 06:14:55;;;;;;;;;;;;;;;-145.50;100.00;65435.88;5059857;28;20396;-61
2022/09/21 06:17:21;;;;;;;;;;;;;;;-145.50;100.00;65435.88;5064439;28;19988;-61
2022/09/21 06:19:47;;;;;;;;;;;;;;;-145.50;100.00;65435.88;5062631;28;19924;-63
2022/09/21 06:22:14;;;;;;;;;;;;;;;-145.50;100.00;65435.88;5072494;28;20554;-60
2022/09/21 06:24:40;;;;;;;;;;;;;;;-145.50;100.00;65435.88;5063042;28;19927;-60
2022/09/21 06:27:06;;;;;;;;;;;;;;;-145.50;100.00;65435.88;5060928;28;20390;-61
2022/09/21 06:29:32;;;;;;;;;;;;;;;-145.50;100.00;65435.88;5058623;28;20028;-61
2022/09/21 06:32:00;;;;;;;;;;;;;;;-145.50;100.00;65435.88;5054024;28;19931;-59
2022/09/21 06:34:26;;;;;;;;;;;;;;;-145.50;100.00;65435.88;5074695;28;19989;-60
2022/09/21 06:36:52;;;;;;;;;;;;;;;-145.50;100.00;65435.88;5068517;28;19924;-61
2022/09/21 06:39:19;;;;;;;;;;;;;;;-145.50;100.00;65435.88;5077934;28;19924;-60
2022/09/21 06:41:45;;;;;;;;;;;;;;;-145.50;100.00;65435.88;5063779;28;19967;-62
2022/09/21 06:44:12;;;;;;;;;;;;;;;-145.50;100.00;65435.88;5057493;28;20026;-62
2022/09/21 06:46:38;;;;;;;;;;;;;;;-145.50;100.00;65435.88;5059882;28;19924;-61
2022/09/21 06:49:04;;;;;;;;;;;;;;;-145.50;100.00;65435.88;5060090;28;20975;-60
2022/09/21 06:51:30;;;;;;;;;;;;;;;-145.50;100.00;65435.88;5065340;28;20059;-59
2022/09/21 06:53:57;;;;;;;;;;;;;;;-145.50;100.00;65435.88;5066535;28;19929;-61
2022/09/21 06:56:24;;;;;;;;;;;;;;;-145.50;100.00;65435.88;5073301;28;19928;-61
2022/09/21 06:58:51;;;;;;;;;;;;;;;-145.50;100.00;65435.88;5061940;28;19963;-62
2022/09/21 07:01:18;;;;;;;;;;;;;;;-145.50;100.00;65435.88;5062600;28;19996;-62
2022/09/21 07:03:47;;;;;;;;;;;;;;;-145.50;100.00;65435.88;5063162;28;19928;-61
2022/09/21 07:06:14;;;;;;;;;;;;;;;-145.50;100.00;65435.88;5066556;28;19923;-62
2022/09/21 07:08:41;;;;;;;;;;;;;;;-145.50;100.00;65435.88;5072783;28;19924;-61
2022/09/21 07:11:27;;;;;;;;;;;;;;;-145.50;100.00;65435.88;5056459;28;20027;-60
2022/09/21 07:13:54;;;;;;;;;;;;;;;-145.50;100.00;65435.88;5068964;28;20012;-61
2022/09/21 07:16:21;;;;;;;;;;;;;;;-145.50;100.00;65435.88;5063099;28;19928;-61
2022/09/21 07:18:47;;;;;;;;;;;;;;;-145.50;100.00;65435.88;5074638;28;19928;-63
2022/09/21 07:21:14;;;;;;;;;;;;;;;-145.50;100.00;65435.88;5059262;28;20313;-62
2022/09/21 07:23:40;;;;;;;;;;;;;;;-145.50;100.00;65435.88;5065855;28;19967;-61
2022/09/21 07:26:08;;;;;;;;;;;;;;;-145.50;100.00;65435.88;5061898;28;19978;-59
2022/09/21 07:28:34;;;;;;;;;;;;;;;-145.50;100.00;65435.88;5045711;28;19925;-61
2022/09/21 07:31:08;;;;;;;;;;;;;;;-145.50;100.00;65435.88;5056805;28;20385;-62
2022/09/21 07:33:35;;;;;;;;;;;;;;;-145.50;100.00;65435.88;5049429;28;19933;-62
2022/09/21 07:36:08;;;;;;;;;;;;;;;-145.50;100.00;65435.88;5063306;28;19931;-62
2022/09/21 07:38:36;;;;;;;;;;;;;;;-145.50;100.00;65435.88;5051819;28;19925;-61
2022/09/21 07:41:02;;;;;;;;;;;;;;;-145.50;100.00;65435.88;5058810;28;19962;-62
2022/09/21 07:43:28;;;;;;;;;;;;;;;-145.50;100.00;65435.88;5068625;28;19977;-61
2022/09/21 07:45:55;;;;;;;;;;;;;;;-145.50;100.00;65435.88;5065803;28;19924;-61
2022/09/21 07:48:22;;;;;;;;;;;;;;;-145.50;100.00;65435.88;5074982;28;20431;-61
2022/09/21 07:50:48;;;;;;;;;;;;;;;-145.50;100.00;65435.88;5058933;28;19925;-62
2022/09/21 07:53:17;;;;;;;;;;;;;;;-145.50;100.00;65435.88;5047963;28;19924;-62
2022/09/21 08:01:05;;;;;;;;;;;;;;;-145.50;100.00;65435.88;5020756;28;19975;-62
2022/09/21 08:03:31;;;;;;;;;;;;;;;-145.50;100.00;65435.88;5008055;28;19925;-62
2022/09/21 08:05:58;;;;;;;;;;;;;;;-145.50;100.00;65435.88;5020652;28;20354;-60
2022/09/21 08:08:25;;;;;;;;;;;;;;;-145.50;100.00;65435.88;5004065;28;20246;-61
2022/09/21 08:10:53;;;;;;;;;;;;;;;-145.50;100.00;65435.88;5022140;28;19924;-61
2022/09/21 08:13:19;;;;;;;;;;;;;;;-145.50;100.00;65435.88;5018854;28;20438;-61
2022/09/21 08:15:46;;;;;;;;;;;;;;;-145.50;100.00;65435.88;5016185;28;20530;-61
2022/09/21 08:18:15;;;;;;;;;;;;;;;-145.50;100.00;65435.88;5007841;28;20373;-61
2022/09/21 08:20:42;;;;;;;;;;;;;;;-145.50;100.00;65435.88;5021107;28;19925;-63
2022/09/21 08:23:09;;;;;;;;;;;;;;;-145.50;100.00;65435.88;5007049;28;20376;-61
2022/09/21 08:25:35;;;;;;;;;;;;;;;-145.50;100.00;65435.88;5020375;28;20115;-62
2022/09/21 08:28:02;;;;;;;;;;;;;;;-145.50;100.00;65435.88;5017852;28;20376;-62
2022/09/21 08:30:34;;;;;;;;;;;;;;;-145.50;100.00;65435.88;5012743;28;20190;-63
2022/09/21 08:33:01;;;;;;;;;;;;;;;-145.50;100.00;65435.88;5026025;28;19924;-63
2022/09/21 08:35:27;;;;;;;;;;;;;;;-145.50;100.00;65435.88;5018979;28;19928;-63
2022/09/21 08:37:53;;;;;;;;;;;;;;;-145.50;100.00;65435.88;5032392;28;19952;-63
2022/09/21 08:40:20;;;;;;;;;;;;;;;-145.50;100.00;65435.88;5035802;28;19956;-63
2022/09/21 08:42:55;;;;;;;;;;;;;;;-145.50;100.00;65435.88;5013651;28;19967;-63
2022/09/21 08:45:24;;;;;;;;;;;;;;;-145.50;100.00;65435.88;5019187;28;19928;-62
2022/09/21 08:47:57;;;;;;;;;;;;;;;-145.50;100.00;65435.88;5020197;28;19971;-64
2022/09/21 08:50:23;;;;;;;;;;;;;;;-145.50;100.00;65435.88;5028901;28;19925;-62
2022/09/21 08:52:51;;;;;;;;;;;;;;;-145.50;100.00;65435.88;5017514;28;19937;-63
2022/09/21 08:55:18;;;;;;;;;;;;;;;-145.50;100.00;65435.88;5012626;28;19928;-63
2022/09/21 08:57:45;;;;;;;;;;;;;;;-145.50;100.00;65435.88;5027786;28;21025;-63
2022/09/21 09:00:15;;;;;;;;;;;;;;;-145.50;100.00;65435.88;5019748;28;20004;-63
2022/09/21 09:03:00;;;;;;;;;;;;;;;-145.50;100.00;65435.88;5026596;28;19920;-63
2022/09/21 09:05:37;;;;;;;;;;;;;;;-145.50;100.00;65435.88;5008299;28;20482;-63
2022/09/21 09:08:18;;;;;;;;;;;;;;;-145.50;100.00;65435.88;5018392;28;20300;-63
2022/09/21 09:11:11;;;;;;;;;;;;;;;-145.50;100.00;65435.88;5014500;28;20027;-63
2022/09/21 09:13:50;;;;;;;;;;;;;;;-145.50;100.00;65435.88;4990513;28;19929;-63
2022/09/21 09:16:25;;;;;;;;;;;;;;;-145.50;100.00;65435.88;5017139;28;19932;-63
2022/09/21 09:18:53;;;;;;;;;;;;;;;-145.50;100.00;65435.88;5026837;28;19979;-63
2022/09/21 09:21:22;;;;;;;;;;;;;;;-145.50;100.00;65435.88;5008717;28;20691;-63
2022/09/21 09:24:01;;;;;;;;;;;;;;;-145.50;100.00;65435.88;4998820;28;19980;-63
2022/09/21 09:26:47;;;;;;;;;;;;;;;-145.50;100.00;65435.88;5016961;28;20473;-63
2022/09/21 09:29:17;;;;;;;;;;;;;;;-145.50;100.00;65435.88;5019085;28;20455;-62
2022/09/21 09:31:43;;;;;;;;;;;;;;;-145.50;100.00;65435.88;5027720;28;19929;-63
2022/09/21 09:34:13;;;;;;;;;;;;;;;-145.50;100.00;65435.88;5015624;28;20157;-62
2022/09/21 09:36:42;;;;;;;;;;;;;;;-145.50;100.00;65435.88;5025491;28;20015;-63
2022/09/21 09:39:24;;;;;;;;;;;;;;;-145.50;100.00;65435.88;5013314;28;20055;-60
2022/09/21 09:41:53;;;;;;;;;;;;;;;-145.50;100.00;65435.88;5022837;28;19925;-61
2022/09/21 09:44:22;;;;;;;;;;;;;;;-145.50;100.00;65435.88;5021060;28;19933;-62
2022/09/21 09:47:03;;;;;;;;;;;;;;;-145.50;100.00;65435.88;5024051;28;19979;-62
2022/09/21 09:49:50;;;;;;;;;;;;;;;-145.50;100.00;65435.88;5018683;28;19925;-63
2022/09/21 09:52:17;;;;;;;;;;;;;;;-145.50;100.00;65435.88;5024911;28;19925;-63
2022/09/21 09:54:43;;;;;;;;;;;;;;;-145.50;100.00;65435.88;5029568;28;20379;-63
2022/09/21 09:57:10;;;;;;;;;;;;;;;-145.50;100.00;65435.88;5016325;28;19924;-63
2022/09/21 09:59:38;;;;;;;;;;;;;;;-145.50;100.00;65435.88;5027414;28;20005;-62
2022/09/21 10:02:17;;;;;;;;;;;;;;;-145.50;100.00;65435.88;5013663;28;19956;-63
2022/09/21 10:05:04;;;;;;;;;;;;;;;-145.50;100.00;65435.88;5020024;28;20006;-62
2022/09/21 10:07:35;;;;;;;;;;;;;;;-145.50;100.00;65435.88;5013760;28;20019;-62
2022/09/21 10:10:02;;;;;;;;;;;;;;;-145.50;100.00;65435.88;5008437;28;19994;-63
2022/09/21 10:12:29;;;;;;;;;;;;;;;-145.50;100.00;65435.88;5022295;28;20738;-62
2022/09/21 10:14:56;;;;;;;;;;;;;;;-145.50;100.00;65435.88;5027174;28;19970;-62
2022/09/21 10:17:23;;;;;;;;;;;;;;;-145.50;100.00;65435.88;5035382;28;19928;-62
2022/09/21 10:20:00;;;;;;;;;;;;;;;-145.50;100.00;65435.88;4994120;28;19937;-62
2022/09/21 10:22:27;;;;;;;;;;;;;;;-145.50;100.00;65435.88;5029260;28;19924;-62
2022/09/21 10:24:55;;;;;;;;;;;;;;;-145.50;100.00;65435.88;5026879;28;19924;-63
2022/09/21 10:27:24;;;;;;;;;;;;;;;-145.50;100.00;65435.88;5032182;28;20540;-63
2022/09/21 10:29:51;;;;;;;;;;;;;;;-145.50;100.00;65435.88;4993579;28;19931;-63
2022/09/21 10:32:22;;;;;;;;;;;;;;;-145.50;100.00;65435.88;5024792;28;20030;-63
2022/09/21 10:35:07;;;;;;;;;;;;;;;-145.50;100.00;65435.88;5026921;28;20348;-62
2022/09/21 10:37:36;;;;;;;;;;;;;;;-145.50;100.00;65435.88;5021216;28;20384;-62
2022/09/21 10:40:03;;;;;;;;;;;;;;;-145.50;100.00;65435.88;5026635;28;19932;-62
2022/09/21 10:42:32;;;;;;;;;;;;;;;-145.50;100.00;65435.88;5012292;28;20118;-62
2022/09/21 10:45:12;;;;;;;;;;;;;;;-145.50;100.00;65435.88;5019189;28;19925;-63
2022/09/21 10:47:41;;;;;;;;;;;;;;;-145.50;100.00;65435.88;5013479;28;19925;-63
2022/09/21 10:50:24;;;;;;;;;;;;;;;-145.50;100.00;65435.88;5026558;28;19979;-63
2022/09/21 10:52:55;;;;;;;;;;;;;;;-145.50;100.00;65435.88;5012263;28;19952;-62
2022/09/21 10:55:22;;;;;;;;;;;;;;;-145.50;100.00;65435.88;5030247;28;19929;-62
2022/09/21 10:57:49;;;;;;;;;;;;;;;-145.50;100.00;65435.88;5027725;28;19924;-62
2022/09/21 11:00:28;;;;;;;;;;;;;;;-145.50;100.00;65435.88;5023153;28;20046;-62
2022/09/21 11:02:57;;;;;;;;;;;;;;;-145.50;100.00;65435.88;5032872;28;19931;-64
2022/09/21 11:05:27;;;;;;;;;;;;;;;-145.50;100.00;65435.88;5030439;28;19928;-65
2022/09/21 11:07:57;;;;;;;;;;;;;;;-145.50;100.00;65435.88;5033336;28;19978;-63
2022/09/21 11:10:29;;;;;;;;;;;;;;;-145.50;100.00;65435.88;5025754;28;20470;-63
2022/09/21 11:13:22;;;;;;;;;;;;;;;-145.50;100.00;65435.88;5027311;28;19931;-63
2022/09/21 11:15:53;;;;;;;;;;;;;;;-145.50;100.00;65435.88;5032857;28;19971;-63
2022/09/21 11:18:46;;;;;;;;;;;;;;;-145.50;100.00;65435.88;5035512;28;20559;-63
2022/09/21 11:21:15;;;;;;;;;;;;;;;-145.50;100.00;65435.88;4982387;28;19968;-62
2022/09/21 11:24:00;;;;;;;;;;;;;;;-145.50;100.00;65435.88;5017105;28;19929;-63
2022/09/21 11:26:29;;;;;;;;;;;;;;;-145.50;100.00;65435.88;5017389;28;20600;-64
2022/09/21 11:29:09;;;;;;;;;;;;;;;-145.50;100.00;65435.88;5016796;28;20351;-64
2022/09/21 11:31:41;;;;;;;;;;;;;;;-145.50;100.00;65435.88;5025830;28;20099;-64
2022/09/21 11:34:26;;;;;;;;;;;;;;;-145.50;100.00;65435.88;5023533;28;20005;-63
2022/09/21 11:37:11;;;;;;;;;;;;;;;-145.50;100.00;65435.88;5014754;28;19929;-63
2022/09/21 11:39:45;;;;;;;;;;;;;;;-145.50;100.00;65435.88;5013836;28;20281;-62
2022/09/21 11:42:28;;;;;;;;;;;;;;;-145.50;100.00;65435.88;5024061;28;20643;-62
2022/09/21 11:44:58;;;;;;;;;;;;;;;-145.50;100.00;65435.88;5021549;28;19925;-63
2022/09/21 11:47:39;;;;;;;;;;;;;;;-145.50;100.00;65435.88;5021066;28;19929;-63
2022/09/21 11:50:29;;;;;;;;;;;;;;;-145.50;100.00;65435.88;5017028;28;20447;-62
2022/09/21 11:53:03;;;;;;;;;;;;;;;-145.50;100.00;65435.88;5012425;28;19929;-63
2022/09/21 11:55:48;;;;;;;;;;;;;;;-145.50;100.00;65435.88;5023818;28;20564;-62
2022/09/21 11:58:37;;;;;;;;;;;;;;;-145.50;100.00;65435.88;5026596;28;20384;-62
2022/09/21 12:01:16;;;;;;;;;;;;;;;-145.50;100.00;65435.88;5019880;28;20585;-62
2022/09/21 12:04:09;;;;;;;;;;;;;;;-145.50;100.00;65435.88;5020240;28;19925;-62
2022/09/21 12:06:44;;;;;;;;;;;;;;;-145.50;100.00;65435.88;4977837;28;19982;-62
2022/09/21 12:09:10;;;;;;;;;;;;;;;-145.50;100.00;65435.88;5015461;28;20313;-63
2022/09/21 12:11:39;;;;;;;;;;;;;;;-145.50;100.00;65435.88;5031171;28;20524;-63
2022/09/21 12:14:06;;;;;;;;;;;;;;;-145.50;100.00;65435.88;5017455;28;19960;-63
2022/09/21 12:17:11;;;;;;;;;;;;;;;-145.50;100.00;65435.88;5026079;28;19932;-63
2022/09/21 12:19:38;;;;;;;;;;;;;;;-145.50;100.00;65435.88;4949229;28;19926;-62
2022/09/21 12:22:08;;;;;;;;;;;;;;;-145.50;100.00;65435.88;4959587;28;20266;-62
2022/09/21 12:24:39;;;;;;;;;;;;;;;-145.50;100.00;65435.88;4945053;28;20685;-62
2022/09/21 12:27:23;;;;;;;;;;;;;;;-145.50;100.00;65435.88;4959269;28;19930;-62
2022/09/21 12:29:52;;;;;;;;;;;;;;;-145.50;100.00;65435.88;4953405;28;19925;-63
2022/09/21 12:32:28;;;;;;;;;;;;;;;-145.50;100.00;65435.88;4950231;28;19926;-62
2022/09/21 12:34:56;;;;;;;;;;;;;;;-145.50;100.00;65435.88;4948310;28;19927;-61
2022/09/21 12:37:25;;;;;;;;;;;;;;;-145.50;100.00;65435.88;4938029;28;19996;-63
2022/09/21 12:39:51;;;;;;;;;;;;;;;-145.50;100.00;65435.88;4952067;28;19962;-63
2022/09/21 12:42:25;;;;;;;;;;;;;;;-145.50;100.00;65435.88;4944712;28;19929;-63